OOCL Jakarta — VRGO7 — position and weather

sailwx.info

Track history (hours):
 
Tides and Currents Weather Stations Pressure Air Temp Water Temp Dewpoint Dewpoint Depression Visibility Wind Speed Wind Dir Waves Ship Positions

OOCL Jakarta

Last reported at 2018-Jun-20 07:14 UTC. Time now 2018-Jun-20 16:53 UTC.
Position N 22°19' E 114°07'.

Length 261 m; draft 10.3 m.

Type: Ship. MMSI: 477738800.

Date/timePositionNaut miles runAvg speedWind from/ knotsBaromVisibWave heightAir tempDewpointWater temp
2018-Jun-20 07:14N 22°19' E 114°07'119 4.7
2018-Jun-19 06:00N 20°24' E 113°36'13422.3 190 / 171001.010.8 36.528.831.0
2018-Jun-19 00:00N 18°36' E 112°12'35719.8 210 / 171000.210.8 27.025.730.0
2018-Jun-18 06:00N 13°00' E 110°06'13722.8 190 / 201000.610.8 30.025.328.0
2018-Jun-18 00:00N 10°48' E 109°30'58720.7 230 / 101002.810.8 26.024.630.0
2018-Jun-16 19:35N 02°08' E 104°55'223.0
2018-Jun-16 19:30N 02°07' E 104°54'1222.5
2018-Jun-16 18:58N 01°56' E 104°48'1221.3
2018-Jun-16 18:23N 01°45' E 104°43'1021.9
2018-Jun-16 17:56N 01°36' E 104°38'921.4
2018-Jun-16 17:29N 01°28' E 104°33'1121.2
2018-Jun-16 17:00N 01°21' E 104°25'1019.9
2018-Jun-16 16:29N 01°16' E 104°16'816.8
2018-Jun-16 16:00N 01°16' E 104°08'713.8
2018-Jun-16 15:30N 01°14' E 104°02'714.5
2018-Jun-16 15:00N 01°12' E 103°55'5 9.9
2018-Jun-16 14:30N 01°11' E 103°50'3 6.4
2018-Jun-16 14:01N 01°14' E 103°47'2 4.5
2018-Jun-16 13:30N 01°16' E 103°48'0 0.1
2018-Jun-16 12:57N 01°16' E 103°47'0 0.0
2018-Jun-16 12:27N 01°16' E 103°47'0 0.0
2018-Jun-16 11:58N 01°16' E 103°47'0 0.0
2018-Jun-16 11:30N 01°16' E 103°47'0 0.0
2018-Jun-16 11:00N 01°16' E 103°47'0 0.0
2018-Jun-16 10:30N 01°16' E 103°47'0 0.0
2018-Jun-16 10:00N 01°16' E 103°47'0 0.0
2018-Jun-16 09:27N 01°16' E 103°47'0 0.1
2018-Jun-16 09:00N 01°16' E 103°48'0 0.1
2018-Jun-16 08:30N 01°16' E 103°47'0 0.0
2018-Jun-16 07:57N 01°16' E 103°47'0 0.0
2018-Jun-16 07:31N 01°16' E 103°47'0 0.1
2018-Jun-16 06:57N 01°16' E 103°48'0 0.0
2018-Jun-16 06:30N 01°16' E 103°48'0 0.1
2018-Jun-16 06:00N 01°16' E 103°47'0 0.0
2018-Jun-16 05:30N 01°16' E 103°47'0 0.0
2018-Jun-16 04:57N 01°16' E 103°47'0 0.0
2018-Jun-16 04:30N 01°16' E 103°47'0 0.0
2018-Jun-16 04:00N 01°16' E 103°47'0 0.1
2018-Jun-16 03:30N 01°16' E 103°48'0 0.1
2018-Jun-16 03:00N 01°16' E 103°47'0 0.4
2018-Jun-16 02:30N 01°16' E 103°47'2 4.5
2018-Jun-16 02:00N 01°16' E 103°45'1 1.9
2018-Jun-16 01:29N 01°17' E 103°46'0 0.0
2018-Jun-16 00:59N 01°17' E 103°46'0 0.0
2018-Jun-16 00:28N 01°17' E 103°46'0 0.0
2018-Jun-15 23:58N 01°17' E 103°46'0 0.0
2018-Jun-15 23:29N 01°17' E 103°46'0 0.0
2018-Jun-15 22:59N 01°17' E 103°46'0 0.0
2018-Jun-15 22:28N 01°17' E 103°46'0 0.0
2018-Jun-15 21:58N 01°17' E 103°46'0 0.0
2018-Jun-15 21:20N 01°17' E 103°46'0 0.0
2018-Jun-15 20:59N 01°17' E 103°46'0 0.0
2018-Jun-15 20:26N 01°17' E 103°46'0 0.0
2018-Jun-15 19:59N 01°17' E 103°46'0 0.0
2018-Jun-15 19:26N 01°17' E 103°46'0 0.0
2018-Jun-15 18:59N 01°17' E 103°46'0 0.0
2018-Jun-15 18:28N 01°17' E 103°46'0 0.0
2018-Jun-15 17:58N 01°17' E 103°46'0 0.0
2018-Jun-15 17:29N 01°17' E 103°46'0 0.0
2018-Jun-15 16:58N 01°17' E 103°46'0 0.0
2018-Jun-15 16:29N 01°17' E 103°46'0 0.0
2018-Jun-15 15:58N 01°17' E 103°46'0 0.0
2018-Jun-15 15:29N 01°17' E 103°46'0 0.0
2018-Jun-15 14:59N 01°17' E 103°46'0 0.0
2018-Jun-15 14:29N 01°17' E 103°46'0 0.0
2018-Jun-15 13:58N 01°17' E 103°46'0 0.0
2018-Jun-15 13:29N 01°17' E 103°46'0 0.0
2018-Jun-15 12:59N 01°17' E 103°46'0 0.0
2018-Jun-15 12:29N 01°17' E 103°46'0 0.0
2018-Jun-15 11:53N 01°17' E 103°46'0 0.0
2018-Jun-15 11:28N 01°17' E 103°46'0 0.0
2018-Jun-15 10:59N 01°17' E 103°46'0 0.0
2018-Jun-15 10:30N 01°17' E 103°46'1 1.7
2018-Jun-15 10:00N 01°17' E 103°45'3 5.2
2018-Jun-15 09:30N 01°15' E 103°46'5 9.9
2018-Jun-15 09:00N 01°13' E 103°51'5 9.2
2018-Jun-15 08:30N 01°14' E 103°55'4 9.0
2018-Jun-15 08:00N 01°15' E 103°59'5 9.8
2018-Jun-15 07:30N 01°16' E 104°04'5 9.3
2018-Jun-15 07:00N 01°17' E 104°09'610.4
2018-Jun-15 06:27N 01°17' E 104°15'510.6
2018-Jun-15 06:00N 01°15' E 104°19'810.7
2018-Jun-15 05:17N 01°16' E 104°26'411.2
2018-Jun-15 04:57N 01°17' E 104°30'511.5
2018-Jun-15 04:29N 01°17' E 104°35'2210.9
2018-Jun-15 02:27N 01°05' E 104°54'511.1
2018-Jun-15 02:00N 01°02' E 104°58'1911.1
2018-Jun-15 00:18N 00°47' E 105°09'  
Track history (hours):
 
Tides and Currents Weather Stations Pressure Air Temp Water Temp Dewpoint Dewpoint Depression Visibility Wind Speed Wind Dir Waves Ship Positions

OOCL Jakarta

Last reported at 2018-Jun-20 07:14 UTC. Time now 2018-Jun-20 16:53 UTC.
Position N 22°19' E 114°07'.

Length 261 m; draft 10.3 m.

Type: Ship. MMSI: 477738800.

Date/timePositionNaut miles runAvg speedWind from/ knotsBaromVisibWave heightAir tempDewpointWater temp
2018-Jun-20 07:14N 22°19' E 114°07'119 4.7
2018-Jun-19 06:00N 20°24' E 113°36'13422.3 190 / 171001.010.8 36.528.831.0
2018-Jun-19 00:00N 18°36' E 112°12'35719.8 210 / 171000.210.8 27.025.730.0
2018-Jun-18 06:00N 13°00' E 110°06'13722.8 190 / 201000.610.8 30.025.328.0
2018-Jun-18 00:00N 10°48' E 109°30'58720.7 230 / 101002.810.8 26.024.630.0
2018-Jun-16 19:35N 02°08' E 104°55'223.0
2018-Jun-16 19:30N 02°07' E 104°54'1222.5
2018-Jun-16 18:58N 01°56' E 104°48'1221.3
2018-Jun-16 18:23N 01°45' E 104°43'1021.9
2018-Jun-16 17:56N 01°36' E 104°38'921.4
2018-Jun-16 17:29N 01°28' E 104°33'1121.2
2018-Jun-16 17:00N 01°21' E 104°25'1019.9
2018-Jun-16 16:29N 01°16' E 104°16'816.8
2018-Jun-16 16:00N 01°16' E 104°08'713.8
2018-Jun-16 15:30N 01°14' E 104°02'714.5
2018-Jun-16 15:00N 01°12' E 103°55'5 9.9
2018-Jun-16 14:30N 01°11' E 103°50'3 6.4
2018-Jun-16 14:01N 01°14' E 103°47'2 4.5
2018-Jun-16 13:30N 01°16' E 103°48'0 0.1
2018-Jun-16 12:57N 01°16' E 103°47'0 0.0
2018-Jun-16 12:27N 01°16' E 103°47'0 0.0
2018-Jun-16 11:58N 01°16' E 103°47'0 0.0
2018-Jun-16 11:30N 01°16' E 103°47'0 0.0
2018-Jun-16 11:00N 01°16' E 103°47'0 0.0
2018-Jun-16 10:30N 01°16' E 103°47'0 0.0
2018-Jun-16 10:00N 01°16' E 103°47'0 0.0
2018-Jun-16 09:27N 01°16' E 103°47'0 0.1
2018-Jun-16 09:00N 01°16' E 103°48'0 0.1
2018-Jun-16 08:30N 01°16' E 103°47'0 0.0
2018-Jun-16 07:57N 01°16' E 103°47'0 0.0
2018-Jun-16 07:31N 01°16' E 103°47'0 0.1
2018-Jun-16 06:57N 01°16' E 103°48'0 0.0
2018-Jun-16 06:30N 01°16' E 103°48'0 0.1
2018-Jun-16 06:00N 01°16' E 103°47'0 0.0
2018-Jun-16 05:30N 01°16' E 103°47'0 0.0
2018-Jun-16 04:57N 01°16' E 103°47'0 0.0
2018-Jun-16 04:30N 01°16' E 103°47'0 0.0
2018-Jun-16 04:00N 01°16' E 103°47'0 0.1
2018-Jun-16 03:30N 01°16' E 103°48'0 0.1
2018-Jun-16 03:00N 01°16' E 103°47'0 0.4
2018-Jun-16 02:30N 01°16' E 103°47'2 4.5
2018-Jun-16 02:00N 01°16' E 103°45'1 1.9
2018-Jun-16 01:29N 01°17' E 103°46'0 0.0
2018-Jun-16 00:59N 01°17' E 103°46'0 0.0
2018-Jun-16 00:28N 01°17' E 103°46'0 0.0
2018-Jun-15 23:58N 01°17' E 103°46'0 0.0
2018-Jun-15 23:29N 01°17' E 103°46'0 0.0
2018-Jun-15 22:59N 01°17' E 103°46'0 0.0
2018-Jun-15 22:28N 01°17' E 103°46'0 0.0
2018-Jun-15 21:58N 01°17' E 103°46'0 0.0
2018-Jun-15 21:20N 01°17' E 103°46'0 0.0
2018-Jun-15 20:59N 01°17' E 103°46'0 0.0
2018-Jun-15 20:26N 01°17' E 103°46'0 0.0
2018-Jun-15 19:59N 01°17' E 103°46'0 0.0
2018-Jun-15 19:26N 01°17' E 103°46'0 0.0
2018-Jun-15 18:59N 01°17' E 103°46'0 0.0
2018-Jun-15 18:28N 01°17' E 103°46'0 0.0
2018-Jun-15 17:58N 01°17' E 103°46'0 0.0
2018-Jun-15 17:29N 01°17' E 103°46'0 0.0
2018-Jun-15 16:58N 01°17' E 103°46'0 0.0
2018-Jun-15 16:29N 01°17' E 103°46'0 0.0
2018-Jun-15 15:58N 01°17' E 103°46'0 0.0
2018-Jun-15 15:29N 01°17' E 103°46'0 0.0
2018-Jun-15 14:59N 01°17' E 103°46'0 0.0
2018-Jun-15 14:29N 01°17' E 103°46'0 0.0
2018-Jun-15 13:58N 01°17' E 103°46'0 0.0
2018-Jun-15 13:29N 01°17' E 103°46'0 0.0
2018-Jun-15 12:59N 01°17' E 103°46'0 0.0
2018-Jun-15 12:29N 01°17' E 103°46'0 0.0
2018-Jun-15 11:53N 01°17' E 103°46'0 0.0
2018-Jun-15 11:28N 01°17' E 103°46'0 0.0
2018-Jun-15 10:59N 01°17' E 103°46'0 0.0
2018-Jun-15 10:30N 01°17' E 103°46'1 1.7
2018-Jun-15 10:00N 01°17' E 103°45'3 5.2
2018-Jun-15 09:30N 01°15' E 103°46'5 9.9
2018-Jun-15 09:00N 01°13' E 103°51'5 9.2
2018-Jun-15 08:30N 01°14' E 103°55'4 9.0
2018-Jun-15 08:00N 01°15' E 103°59'5 9.8
2018-Jun-15 07:30N 01°16' E 104°04'5 9.3
2018-Jun-15 07:00N 01°17' E 104°09'610.4
2018-Jun-15 06:27N 01°17' E 104°15'510.6
2018-Jun-15 06:00N 01°15' E 104°19'810.7
2018-Jun-15 05:17N 01°16' E 104°26'411.2
2018-Jun-15 04:57N 01°17' E 104°30'511.5
2018-Jun-15 04:29N 01°17' E 104°35'2210.9
2018-Jun-15 02:27N 01°05' E 104°54'511.1
2018-Jun-15 02:00N 01°02' E 104°58'1911.1
2018-Jun-15 00:18N 00°47' E 105°09'  

Dump ship's entire track history